sensor_id;sensor_type;location;lat;lon;timestamp;P1;durP1;ratioP1;P2;durP2;ratioP2
12202;SDS011;6164;42.178;24.622;2023-05-10T00:02:23;8.93;;;5.03;;
12202;SDS011;6164;42.178;24.622;2023-05-10T00:04:50;7.20;;;4.93;;
12202;SDS011;6164;42.178;24.622;2023-05-10T00:07:17;6.75;;;5.10;;
12202;SDS011;6164;42.178;24.622;2023-05-10T00:09:44;10.18;;;5.70;;
12202;SDS011;6164;42.178;24.622;2023-05-10T00:12:10;5.60;;;4.93;;
12202;SDS011;6164;42.178;24.622;2023-05-10T00:14:38;5.70;;;5.03;;
12202;SDS011;6164;42.178;24.622;2023-05-10T00:17:05;9.30;;;5.43;;
12202;SDS011;6164;42.178;24.622;2023-05-10T00:19:32;5.90;;;5.00;;
12202;SDS011;6164;42.178;24.622;2023-05-10T00:21:59;7.78;;;4.68;;
12202;SDS011;6164;42.178;24.622;2023-05-10T00:24:25;6.45;;;4.72;;
12202;SDS011;6164;42.178;24.622;2023-05-10T00:26:52;6.07;;;4.72;;
12202;SDS011;6164;42.178;24.622;2023-05-10T00:29:19;7.50;;;5.43;;
12202;SDS011;6164;42.178;24.622;2023-05-10T00:31:47;6.97;;;5.40;;
12202;SDS011;6164;42.178;24.622;2023-05-10T00:34:14;6.85;;;5.07;;
12202;SDS011;6164;42.178;24.622;2023-05-10T00:36:40;7.88;;;5.15;;
12202;SDS011;6164;42.178;24.622;2023-05-10T00:39:07;6.75;;;4.70;;
12202;SDS011;6164;42.178;24.622;2023-05-10T00:41:34;6.65;;;4.75;;
12202;SDS011;6164;42.178;24.622;2023-05-10T00:44:00;6.47;;;5.47;;
12202;SDS011;6164;42.178;24.622;2023-05-10T00:46:27;10.70;;;5.20;;
12202;SDS011;6164;42.178;24.622;2023-05-10T00:48:56;6.03;;;5.20;;
12202;SDS011;6164;42.178;24.622;2023-05-10T00:51:23;7.22;;;5.22;;
12202;SDS011;6164;42.178;24.622;2023-05-10T00:53:51;8.23;;;6.35;;
12202;SDS011;6164;42.178;24.622;2023-05-10T00:56:17;8.82;;;5.70;;
12202;SDS011;6164;42.178;24.622;2023-05-10T00:58:45;7.72;;;5.38;;
12202;SDS011;6164;42.178;24.622;2023-05-10T01:01:12;10.05;;;5.68;;
12202;SDS011;6164;42.178;24.622;2023-05-10T01:03:39;8.55;;;5.53;;
12202;SDS011;6164;42.178;24.622;2023-05-10T01:06:08;9.65;;;5.95;;
12202;SDS011;6164;42.178;24.622;2023-05-10T01:08:36;7.05;;;6.00;;
12202;SDS011;6164;42.178;24.622;2023-05-10T01:11:03;6.85;;;5.78;;
12202;SDS011;6164;42.178;24.622;2023-05-10T01:13:30;13.40;;;5.88;;
12202;SDS011;6164;42.178;24.622;2023-05-10T01:15:59;7.13;;;5.45;;
12202;SDS011;6164;42.178;24.622;2023-05-10T01:18:28;11.55;;;5.40;;
12202;SDS011;6164;42.178;24.622;2023-05-10T01:21:00;7.57;;;5.18;;
12202;SDS011;6164;42.178;24.622;2023-05-10T01:23:39;10.25;;;5.00;;
12202;SDS011;6164;42.178;24.622;2023-05-10T01:26:39;7.38;;;5.20;;
12202;SDS011;6164;42.178;24.622;2023-05-10T01:29:33;7.78;;;5.72;;
12202;SDS011;6164;42.178;24.622;2023-05-10T01:32:31;9.27;;;5.97;;
12202;SDS011;6164;42.178;24.622;2023-05-10T01:35:07;9.98;;;6.40;;
12202;SDS011;6164;42.178;24.622;2023-05-10T01:37:44;8.10;;;6.00;;
12202;SDS011;6164;42.178;24.622;2023-05-10T01:40:16;8.43;;;5.90;;
12202;SDS011;6164;42.178;24.622;2023-05-10T01:42:50;11.20;;;6.22;;
12202;SDS011;6164;42.178;24.622;2023-05-10T01:45:21;8.90;;;6.20;;
12202;SDS011;6164;42.178;24.622;2023-05-10T01:47:58;7.70;;;5.95;;
12202;SDS011;6164;42.178;24.622;2023-05-10T01:50:31;8.52;;;6.13;;
12202;SDS011;6164;42.178;24.622;2023-05-10T01:53:00;9.88;;;6.38;;
12202;SDS011;6164;42.178;24.622;2023-05-10T01:55:32;10.48;;;6.43;;
12202;SDS011;6164;42.178;24.622;2023-05-10T01:58:02;7.60;;;5.93;;
12202;SDS011;6164;42.178;24.622;2023-05-10T02:00:32;10.57;;;6.00;;
12202;SDS011;6164;42.178;24.622;2023-05-10T02:03:04;8.70;;;6.07;;
12202;SDS011;6164;42.178;24.622;2023-05-10T02:05:35;8.35;;;5.28;;
12202;SDS011;6164;42.178;24.622;2023-05-10T02:08:05;9.85;;;5.60;;
12202;SDS011;6164;42.178;24.622;2023-05-10T02:10:33;8.65;;;5.70;;
12202;SDS011;6164;42.178;24.622;2023-05-10T02:13:01;9.52;;;6.30;;
12202;SDS011;6164;42.178;24.622;2023-05-10T02:15:29;9.75;;;6.07;;
12202;SDS011;6164;42.178;24.622;2023-05-10T02:17:57;9.30;;;5.75;;
12202;SDS011;6164;42.178;24.622;2023-05-10T02:20:27;9.10;;;5.82;;
12202;SDS011;6164;42.178;24.622;2023-05-10T02:22:57;9.25;;;6.10;;
12202;SDS011;6164;42.178;24.622;2023-05-10T02:25:25;7.57;;;5.03;;
12202;SDS011;6164;42.178;24.622;2023-05-10T02:27:55;7.97;;;5.65;;
12202;SDS011;6164;42.178;24.622;2023-05-10T02:30:23;5.93;;;5.30;;
12202;SDS011;6164;42.178;24.622;2023-05-10T02:32:50;9.60;;;5.22;;
12202;SDS011;6164;42.178;24.622;2023-05-10T02:35:18;8.40;;;6.00;;
12202;SDS011;6164;42.178;24.622;2023-05-10T02:37:47;9.85;;;5.78;;
12202;SDS011;6164;42.178;24.622;2023-05-10T02:40:14;9.13;;;5.75;;
12202;SDS011;6164;42.178;24.622;2023-05-10T02:42:43;9.20;;;5.90;;
12202;SDS011;6164;42.178;24.622;2023-05-10T02:45:14;8.68;;;5.93;;
12202;SDS011;6164;42.178;24.622;2023-05-10T02:47:44;8.93;;;5.60;;
12202;SDS011;6164;42.178;24.622;2023-05-10T02:50:11;7.57;;;5.95;;
12202;SDS011;6164;42.178;24.622;2023-05-10T02:52:39;7.93;;;5.53;;
12202;SDS011;6164;42.178;24.622;2023-05-10T02:55:11;9.35;;;6.20;;
12202;SDS011;6164;42.178;24.622;2023-05-10T02:57:41;7.63;;;6.00;;
12202;SDS011;6164;42.178;24.622;2023-05-10T03:00:16;9.65;;;6.55;;
12202;SDS011;6164;42.178;24.622;2023-05-10T03:02:43;8.70;;;5.80;;
12202;SDS011;6164;42.178;24.622;2023-05-10T03:05:10;8.70;;;6.50;;
12202;SDS011;6164;42.178;24.622;2023-05-10T03:07:37;9.13;;;6.13;;
12202;SDS011;6164;42.178;24.622;2023-05-10T03:10:04;11.30;;;6.57;;
12202;SDS011;6164;42.178;24.622;2023-05-10T03:12:37;8.13;;;5.90;;
12202;SDS011;6164;42.178;24.622;2023-05-10T03:15:15;7.88;;;6.60;;
12202;SDS011;6164;42.178;24.622;2023-05-10T03:17:55;11.43;;;6.38;;
12202;SDS011;6164;42.178;24.622;2023-05-10T03:20:29;10.13;;;6.20;;
12202;SDS011;6164;42.178;24.622;2023-05-10T03:23:02;9.02;;;6.45;;
12202;SDS011;6164;42.178;24.622;2023-05-10T03:25:33;11.60;;;6.70;;
12202;SDS011;6164;42.178;24.622;2023-05-10T03:28:02;9.18;;;6.28;;
12202;SDS011;6164;42.178;24.622;2023-05-10T03:30:30;12.73;;;6.80;;
12202;SDS011;6164;42.178;24.622;2023-05-10T03:32:58;9.57;;;6.55;;
12202;SDS011;6164;42.178;24.622;2023-05-10T03:35:30;7.40;;;6.50;;
12202;SDS011;6164;42.178;24.622;2023-05-10T03:37:57;8.77;;;6.43;;
12202;SDS011;6164;42.178;24.622;2023-05-10T03:40:24;8.88;;;6.63;;
12202;SDS011;6164;42.178;24.622;2023-05-10T03:42:51;8.85;;;6.75;;
12202;SDS011;6164;42.178;24.622;2023-05-10T03:45:19;10.02;;;6.40;;
12202;SDS011;6164;42.178;24.622;2023-05-10T03:47:46;9.82;;;6.72;;
12202;SDS011;6164;42.178;24.622;2023-05-10T03:50:12;9.30;;;7.07;;
12202;SDS011;6164;42.178;24.622;2023-05-10T03:52:39;9.00;;;6.38;;
12202;SDS011;6164;42.178;24.622;2023-05-10T03:55:06;13.75;;;6.63;;
12202;SDS011;6164;42.178;24.622;2023-05-10T03:57:33;9.63;;;6.57;;
12202;SDS011;6164;42.178;24.622;2023-05-10T04:00:00;10.15;;;7.13;;
12202;SDS011;6164;42.178;24.622;2023-05-10T04:02:29;8.18;;;6.15;;
12202;SDS011;6164;42.178;24.622;2023-05-10T04:04:55;8.38;;;5.57;;
12202;SDS011;6164;42.178;24.622;2023-05-10T04:07:22;7.85;;;6.57;;
12202;SDS011;6164;42.178;24.622;2023-05-10T04:09:49;11.57;;;6.50;;
12202;SDS011;6164;42.178;24.622;2023-05-10T04:12:16;9.32;;;6.22;;
12202;SDS011;6164;42.178;24.622;2023-05-10T04:14:42;10.90;;;7.13;;
12202;SDS011;6164;42.178;24.622;2023-05-10T04:17:09;13.05;;;6.65;;
12202;SDS011;6164;42.178;24.622;2023-05-10T04:19:37;9.63;;;6.43;;
12202;SDS011;6164;42.178;24.622;2023-05-10T04:22:04;9.52;;;6.82;;
12202;SDS011;6164;42.178;24.622;2023-05-10T04:24:31;8.20;;;6.05;;
12202;SDS011;6164;42.178;24.622;2023-05-10T04:26:58;8.60;;;6.57;;
12202;SDS011;6164;42.178;24.622;2023-05-10T04:29:24;6.93;;;6.13;;
12202;SDS011;6164;42.178;24.622;2023-05-10T04:31:51;12.02;;;6.75;;
12202;SDS011;6164;42.178;24.622;2023-05-10T04:34:19;8.55;;;6.68;;
12202;SDS011;6164;42.178;24.622;2023-05-10T04:36:50;15.05;;;6.80;;
12202;SDS011;6164;42.178;24.622;2023-05-10T04:39:17;10.20;;;7.22;;
12202;SDS011;6164;42.178;24.622;2023-05-10T04:41:44;11.18;;;6.97;;
12202;SDS011;6164;42.178;24.622;2023-05-10T04:44:11;11.40;;;6.55;;
12202;SDS011;6164;42.178;24.622;2023-05-10T04:46:37;10.73;;;7.00;;
12202;SDS011;6164;42.178;24.622;2023-05-10T04:49:04;9.80;;;7.20;;
12202;SDS011;6164;42.178;24.622;2023-05-10T04:51:31;10.18;;;6.65;;
12202;SDS011;6164;42.178;24.622;2023-05-10T04:53:59;12.70;;;7.15;;
12202;SDS011;6164;42.178;24.622;2023-05-10T04:56:25;10.85;;;7.18;;
12202;SDS011;6164;42.178;24.622;2023-05-10T04:58:52;8.70;;;7.53;;
12202;SDS011;6164;42.178;24.622;2023-05-10T05:01:19;9.00;;;7.13;;
12202;SDS011;6164;42.178;24.622;2023-05-10T05:03:46;9.45;;;7.93;;
12202;SDS011;6164;42.178;24.622;2023-05-10T05:06:12;10.20;;;7.38;;
12202;SDS011;6164;42.178;24.622;2023-05-10T05:08:39;12.43;;;7.70;;
12202;SDS011;6164;42.178;24.622;2023-05-10T05:11:07;8.85;;;7.32;;
12202;SDS011;6164;42.178;24.622;2023-05-10T05:13:34;8.77;;;7.63;;
12202;SDS011;6164;42.178;24.622;2023-05-10T05:16:01;17.55;;;7.93;;
12202;SDS011;6164;42.178;24.622;2023-05-10T05:18:28;11.05;;;7.20;;
12202;SDS011;6164;42.178;24.622;2023-05-10T05:20:55;11.23;;;7.25;;
12202;SDS011;6164;42.178;24.622;2023-05-10T05:23:21;8.65;;;6.47;;
12202;SDS011;6164;42.178;24.622;2023-05-10T05:25:50;11.75;;;6.50;;
12202;SDS011;6164;42.178;24.622;2023-05-10T05:28:19;7.93;;;6.47;;
12202;SDS011;6164;42.178;24.622;2023-05-10T05:30:46;10.77;;;6.80;;
12202;SDS011;6164;42.178;24.622;2023-05-10T05:33:13;11.00;;;6.50;;
12202;SDS011;6164;42.178;24.622;2023-05-10T05:35:40;12.55;;;6.32;;
12202;SDS011;6164;42.178;24.622;2023-05-10T05:38:08;8.40;;;6.30;;
12202;SDS011;6164;42.178;24.622;2023-05-10T05:40:34;10.82;;;6.07;;
12202;SDS011;6164;42.178;24.622;2023-05-10T05:43:02;10.48;;;5.97;;
12202;SDS011;6164;42.178;24.622;2023-05-10T05:45:30;9.27;;;5.45;;
12202;SDS011;6164;42.178;24.622;2023-05-10T05:47:56;13.95;;;6.45;;
12202;SDS011;6164;42.178;24.622;2023-05-10T05:50:23;10.07;;;6.38;;
12202;SDS011;6164;42.178;24.622;2023-05-10T05:52:50;6.68;;;5.93;;
12202;SDS011;6164;42.178;24.622;2023-05-10T05:55:16;9.63;;;6.43;;
12202;SDS011;6164;42.178;24.622;2023-05-10T05:57:43;7.65;;;6.20;;
12202;SDS011;6164;42.178;24.622;2023-05-10T06:00:10;10.45;;;6.43;;
12202;SDS011;6164;42.178;24.622;2023-05-10T06:02:39;8.65;;;6.55;;
12202;SDS011;6164;42.178;24.622;2023-05-10T06:05:06;13.30;;;6.50;;
12202;SDS011;6164;42.178;24.622;2023-05-10T06:07:33;11.07;;;6.72;;
12202;SDS011;6164;42.178;24.622;2023-05-10T06:10:04;9.63;;;6.90;;
12202;SDS011;6164;42.178;24.622;2023-05-10T06:12:31;11.32;;;6.03;;
12202;SDS011;6164;42.178;24.622;2023-05-10T06:14:58;7.38;;;6.13;;
12202;SDS011;6164;42.178;24.622;2023-05-10T06:17:24;8.50;;;6.53;;
12202;SDS011;6164;42.178;24.622;2023-05-10T06:19:53;8.18;;;5.93;;
12202;SDS011;6164;42.178;24.622;2023-05-10T06:22:19;8.18;;;6.18;;
12202;SDS011;6164;42.178;24.622;2023-05-10T06:24:47;8.63;;;6.03;;
12202;SDS011;6164;42.178;24.622;2023-05-10T06:27:14;13.18;;;6.38;;
12202;SDS011;6164;42.178;24.622;2023-05-10T06:29:41;9.80;;;6.30;;
12202;SDS011;6164;42.178;24.622;2023-05-10T06:32:08;10.20;;;6.43;;
12202;SDS011;6164;42.178;24.622;2023-05-10T06:34:35;7.40;;;6.18;;
12202;SDS011;6164;42.178;24.622;2023-05-10T06:37:03;11.05;;;6.50;;
12202;SDS011;6164;42.178;24.622;2023-05-10T06:39:29;9.35;;;5.97;;
12202;SDS011;6164;42.178;24.622;2023-05-10T06:41:56;7.22;;;5.75;;
12202;SDS011;6164;42.178;24.622;2023-05-10T06:44:23;9.23;;;6.18;;
12202;SDS011;6164;42.178;24.622;2023-05-10T06:46:49;8.02;;;4.85;;
12202;SDS011;6164;42.178;24.622;2023-05-10T06:49:17;7.22;;;5.70;;
12202;SDS011;6164;42.178;24.622;2023-05-10T06:51:44;7.97;;;5.65;;
12202;SDS011;6164;42.178;24.622;2023-05-10T06:54:12;12.05;;;5.07;;
12202;SDS011;6164;42.178;24.622;2023-05-10T06:56:39;11.65;;;5.78;;
12202;SDS011;6164;42.178;24.622;2023-05-10T06:59:05;8.45;;;5.45;;
12202;SDS011;6164;42.178;24.622;2023-05-10T07:01:32;6.90;;;5.30;;
12202;SDS011;6164;42.178;24.622;2023-05-10T07:03:59;7.93;;;5.93;;
12202;SDS011;6164;42.178;24.622;2023-05-10T07:06:26;7.50;;;5.55;;
12202;SDS011;6164;42.178;24.622;2023-05-10T07:08:52;5.47;;;4.97;;
12202;SDS011;6164;42.178;24.622;2023-05-10T07:11:21;11.23;;;5.15;;
12202;SDS011;6164;42.178;24.622;2023-05-10T07:13:47;7.85;;;5.93;;
12202;SDS011;6164;42.178;24.622;2023-05-10T07:16:14;10.73;;;5.88;;
12202;SDS011;6164;42.178;24.622;2023-05-10T07:18:41;8.68;;;5.75;;
12202;SDS011;6164;42.178;24.622;2023-05-10T07:21:08;9.77;;;5.93;;
12202;SDS011;6164;42.178;24.622;2023-05-10T07:23:34;7.50;;;5.32;;
12202;SDS011;6164;42.178;24.622;2023-05-10T07:26:01;8.18;;;5.53;;
12202;SDS011;6164;42.178;24.622;2023-05-10T07:28:29;7.97;;;5.70;;
12202;SDS011;6164;42.178;24.622;2023-05-10T07:30:56;9.52;;;5.80;;
12202;SDS011;6164;42.178;24.622;2023-05-10T07:33:23;6.72;;;5.10;;
12202;SDS011;6164;42.178;24.622;2023-05-10T07:35:52;8.82;;;5.85;;
12202;SDS011;6164;42.178;24.622;2023-05-10T07:38:19;9.32;;;5.65;;
12202;SDS011;6164;42.178;24.622;2023-05-10T07:40:46;10.80;;;6.20;;
12202;SDS011;6164;42.178;24.622;2023-05-10T07:43:12;8.82;;;5.40;;
12202;SDS011;6164;42.178;24.622;2023-05-10T07:45:41;9.88;;;5.85;;
12202;SDS011;6164;42.178;24.622;2023-05-10T07:48:07;7.80;;;5.90;;
12202;SDS011;6164;42.178;24.622;2023-05-10T07:50:34;10.23;;;5.25;;
12202;SDS011;6164;42.178;24.622;2023-05-10T07:53:01;9.23;;;5.18;;
12202;SDS011;6164;42.178;24.622;2023-05-10T07:55:27;10.15;;;5.78;;
12202;SDS011;6164;42.178;24.622;2023-05-10T07:57:54;7.35;;;5.03;;
12202;SDS011;6164;42.178;24.622;2023-05-10T08:00:21;6.78;;;5.30;;
12202;SDS011;6164;42.178;24.622;2023-05-10T08:02:49;7.75;;;5.32;;
12202;SDS011;6164;42.178;24.622;2023-05-10T08:05:16;7.25;;;5.10;;
12202;SDS011;6164;42.178;24.622;2023-05-10T08:07:42;8.50;;;5.32;;
12202;SDS011;6164;42.178;24.622;2023-05-10T08:10:09;5.18;;;4.40;;
12202;SDS011;6164;42.178;24.622;2023-05-10T08:12:37;8.02;;;4.68;;
12202;SDS011;6164;42.178;24.622;2023-05-10T08:15:04;11.10;;;5.30;;
12202;SDS011;6164;42.178;24.622;2023-05-10T08:17:32;7.20;;;5.38;;
12202;SDS011;6164;42.178;24.622;2023-05-10T08:20:00;10.68;;;4.85;;
12202;SDS011;6164;42.178;24.622;2023-05-10T08:22:27;7.05;;;5.00;;
12202;SDS011;6164;42.178;24.622;2023-05-10T08:24:54;6.53;;;4.43;;
12202;SDS011;6164;42.178;24.622;2023-05-10T08:27:20;5.45;;;4.70;;
12202;SDS011;6164;42.178;24.622;2023-05-10T08:29:47;6.53;;;4.63;;
12202;SDS011;6164;42.178;24.622;2023-05-10T08:32:14;7.38;;;4.50;;
12202;SDS011;6164;42.178;24.622;2023-05-10T08:34:40;7.28;;;4.95;;
12202;SDS011;6164;42.178;24.622;2023-05-10T08:37:09;7.43;;;4.70;;
12202;SDS011;6164;42.178;24.622;2023-05-10T08:39:38;5.88;;;4.43;;
12202;SDS011;6164;42.178;24.622;2023-05-10T08:42:04;5.85;;;4.63;;
12202;SDS011;6164;42.178;24.622;2023-05-10T08:44:34;6.28;;;4.55;;
12202;SDS011;6164;42.178;24.622;2023-05-10T08:47:02;9.38;;;4.43;;
12202;SDS011;6164;42.178;24.622;2023-05-10T08:49:31;6.28;;;3.92;;
12202;SDS011;6164;42.178;24.622;2023-05-10T08:51:59;7.03;;;4.22;;
12202;SDS011;6164;42.178;24.622;2023-05-10T08:54:31;5.07;;;4.18;;
12202;SDS011;6164;42.178;24.622;2023-05-10T08:56:58;5.95;;;4.40;;
12202;SDS011;6164;42.178;24.622;2023-05-10T08:59:25;6.32;;;4.45;;
12202;SDS011;6164;42.178;24.622;2023-05-10T09:01:52;6.28;;;4.25;;
12202;SDS011;6164;42.178;24.622;2023-05-10T09:04:22;5.55;;;4.10;;
12202;SDS011;6164;42.178;24.622;2023-05-10T09:06:49;5.95;;;4.13;;
12202;SDS011;6164;42.178;24.622;2023-05-10T09:09:16;4.57;;;4.18;;
12202;SDS011;6164;42.178;24.622;2023-05-10T09:11:44;7.90;;;4.60;;
12202;SDS011;6164;42.178;24.622;2023-05-10T09:14:11;5.43;;;4.20;;
12202;SDS011;6164;42.178;24.622;2023-05-10T09:16:39;8.00;;;4.80;;
12202;SDS011;6164;42.178;24.622;2023-05-10T09:19:06;8.75;;;4.60;;
12202;SDS011;6164;42.178;24.622;2023-05-10T09:21:34;8.23;;;4.68;;
12202;SDS011;6164;42.178;24.622;2023-05-10T09:24:03;6.32;;;4.60;;
12202;SDS011;6164;42.178;24.622;2023-05-10T09:26:30;6.78;;;4.63;;
12202;SDS011;6164;42.178;24.622;2023-05-10T09:28:59;5.72;;;4.20;;
12202;SDS011;6164;42.178;24.622;2023-05-10T09:34:10;6.80;;;4.93;;
12202;SDS011;6164;42.178;24.622;2023-05-10T09:36:36;6.35;;;4.50;;
12202;SDS011;6164;42.178;24.622;2023-05-10T09:39:16;7.45;;;4.40;;
12202;SDS011;6164;42.178;24.622;2023-05-10T09:41:44;6.72;;;4.00;;
12202;SDS011;6164;42.178;24.622;2023-05-10T09:44:12;7.00;;;4.90;;
12202;SDS011;6164;42.178;24.622;2023-05-10T09:46:48;4.75;;;4.10;;
12202;SDS011;6164;42.178;24.622;2023-05-10T09:49:15;5.45;;;4.32;;
12202;SDS011;6164;42.178;24.622;2023-05-10T09:51:42;5.43;;;4.35;;
12202;SDS011;6164;42.178;24.622;2023-05-10T09:54:09;7.43;;;4.47;;
12202;SDS011;6164;42.178;24.622;2023-05-10T09:56:37;6.40;;;4.60;;
12202;SDS011;6164;42.178;24.622;2023-05-10T09:59:05;5.70;;;4.10;;
12202;SDS011;6164;42.178;24.622;2023-05-10T10:01:34;7.47;;;4.53;;
12202;SDS011;6164;42.178;24.622;2023-05-10T10:04:02;6.28;;;4.32;;
12202;SDS011;6164;42.178;24.622;2023-05-10T10:06:34;4.45;;;4.05;;
12202;SDS011;6164;42.178;24.622;2023-05-10T10:09:03;6.82;;;3.58;;
12202;SDS011;6164;42.178;24.622;2023-05-10T10:11:31;6.03;;;4.28;;
12202;SDS011;6164;42.178;24.622;2023-05-10T10:13:57;5.20;;;3.88;;
12202;SDS011;6164;42.178;24.622;2023-05-10T10:16:24;5.50;;;4.20;;
12202;SDS011;6164;42.178;24.622;2023-05-10T10:18:54;5.55;;;4.63;;
12202;SDS011;6164;42.178;24.622;2023-05-10T10:21:21;5.28;;;4.10;;
12202;SDS011;6164;42.178;24.622;2023-05-10T10:23:48;12.05;;;4.45;;
12202;SDS011;6164;42.178;24.622;2023-05-10T10:26:15;5.53;;;4.30;;
12202;SDS011;6164;42.178;24.622;2023-05-10T10:28:46;6.15;;;4.63;;
12202;SDS011;6164;42.178;24.622;2023-05-10T10:31:17;8.13;;;4.45;;
12202;SDS011;6164;42.178;24.622;2023-05-10T10:33:59;8.20;;;4.35;;
12202;SDS011;6164;42.178;24.622;2023-05-10T10:36:29;6.53;;;4.25;;
12202;SDS011;6164;42.178;24.622;2023-05-10T10:38:58;7.15;;;4.50;;
12202;SDS011;6164;42.178;24.622;2023-05-10T10:41:29;6.50;;;4.65;;
12202;SDS011;6164;42.178;24.622;2023-05-10T10:47:02;6.18;;;4.32;;
12202;SDS011;6164;42.178;24.622;2023-05-10T10:49:43;5.57;;;4.18;;
12202;SDS011;6164;42.178;24.622;2023-05-10T10:52:21;5.03;;;3.90;;
12202;SDS011;6164;42.178;24.622;2023-05-10T10:54:52;4.40;;;3.97;;
12202;SDS011;6164;42.178;24.622;2023-05-10T10:57:22;8.20;;;4.22;;
12202;SDS011;6164;42.178;24.622;2023-05-10T10:59:48;7.28;;;4.57;;
12202;SDS011;6164;42.178;24.622;2023-05-10T11:02:34;7.10;;;4.55;;
12202;SDS011;6164;42.178;24.622;2023-05-10T11:05:33;3.95;;;3.55;;
12202;SDS011;6164;42.178;24.622;2023-05-10T11:08:06;5.28;;;4.03;;
12202;SDS011;6164;42.178;24.622;2023-05-10T11:10:35;6.03;;;4.85;;
12202;SDS011;6164;42.178;24.622;2023-05-10T11:13:03;6.93;;;4.07;;
12202;SDS011;6164;42.178;24.622;2023-05-10T11:15:31;6.75;;;4.60;;
12202;SDS011;6164;42.178;24.622;2023-05-10T11:17:58;7.25;;;4.05;;
12202;SDS011;6164;42.178;24.622;2023-05-10T11:20:28;5.13;;;3.78;;
12202;SDS011;6164;42.178;24.622;2023-05-10T11:23:11;4.32;;;3.65;;
12202;SDS011;6164;42.178;24.622;2023-05-10T11:25:41;5.03;;;3.40;;
12202;SDS011;6164;42.178;24.622;2023-05-10T11:28:09;5.40;;;4.38;;
12202;SDS011;6164;42.178;24.622;2023-05-10T11:30:36;6.47;;;4.10;;
12202;SDS011;6164;42.178;24.622;2023-05-10T11:33:04;4.47;;;3.88;;
12202;SDS011;6164;42.178;24.622;2023-05-10T11:35:37;4.20;;;3.80;;
12202;SDS011;6164;42.178;24.622;2023-05-10T11:38:05;4.15;;;3.67;;
12202;SDS011;6164;42.178;24.622;2023-05-10T11:40:33;6.50;;;4.35;;
12202;SDS011;6164;42.178;24.622;2023-05-10T11:43:00;6.35;;;3.90;;
12202;SDS011;6164;42.178;24.622;2023-05-10T11:45:26;8.82;;;5.07;;
12202;SDS011;6164;42.178;24.622;2023-05-10T11:47:54;5.75;;;4.05;;
12202;SDS011;6164;42.178;24.622;2023-05-10T11:50:21;7.90;;;4.50;;
12202;SDS011;6164;42.178;24.622;2023-05-10T11:52:51;4.93;;;4.07;;
12202;SDS011;6164;42.178;24.622;2023-05-10T11:55:18;4.40;;;3.75;;
12202;SDS011;6164;42.178;24.622;2023-05-10T11:57:45;7.43;;;4.00;;
12202;SDS011;6164;42.178;24.622;2023-05-10T12:00:12;6.78;;;3.90;;
12202;SDS011;6164;42.178;24.622;2023-05-10T12:02:40;6.03;;;4.15;;
12202;SDS011;6164;42.178;24.622;2023-05-10T12:05:07;8.07;;;3.90;;
12202;SDS011;6164;42.178;24.622;2023-05-10T12:07:35;4.40;;;4.00;;
12202;SDS011;6164;42.178;24.622;2023-05-10T12:10:04;4.40;;;4.00;;
12202;SDS011;6164;42.178;24.622;2023-05-10T12:12:37;4.20;;;3.78;;
12202;SDS011;6164;42.178;24.622;2023-05-10T12:15:07;5.13;;;3.50;;
12202;SDS011;6164;42.178;24.622;2023-05-10T12:17:37;4.50;;;3.97;;
12202;SDS011;6164;42.178;24.622;2023-05-10T12:20:15;4.43;;;3.97;;
12202;SDS011;6164;42.178;24.622;2023-05-10T12:22:46;5.45;;;3.88;;
12202;SDS011;6164;42.178;24.622;2023-05-10T12:25:16;7.55;;;3.95;;
12202;SDS011;6164;42.178;24.622;2023-05-10T12:27:53;5.13;;;4.07;;
12202;SDS011;6164;42.178;24.622;2023-05-10T12:30:21;6.07;;;4.50;;
12202;SDS011;6164;42.178;24.622;2023-05-10T12:32:49;5.38;;;4.50;;
12202;SDS011;6164;42.178;24.622;2023-05-10T12:35:17;4.85;;;3.90;;
12202;SDS011;6164;42.178;24.622;2023-05-10T12:37:47;5.00;;;3.95;;
12202;SDS011;6164;42.178;24.622;2023-05-10T12:40:14;8.10;;;4.30;;
12202;SDS011;6164;42.178;24.622;2023-05-10T12:42:42;7.55;;;4.20;;
12202;SDS011;6164;42.178;24.622;2023-05-10T12:45:10;6.28;;;3.92;;
12202;SDS011;6164;42.178;24.622;2023-05-10T12:47:37;4.18;;;3.80;;
12202;SDS011;6164;42.178;24.622;2023-05-10T12:50:05;7.18;;;3.97;;
12202;SDS011;6164;42.178;24.622;2023-05-10T12:52:32;5.28;;;4.40;;
12202;SDS011;6164;42.178;24.622;2023-05-10T12:54:59;6.53;;;4.63;;
12202;SDS011;6164;42.178;24.622;2023-05-10T12:57:26;4.85;;;4.45;;
12202;SDS011;6164;42.178;24.622;2023-05-10T12:59:55;6.80;;;4.85;;
12202;SDS011;6164;42.178;24.622;2023-05-10T13:02:21;10.63;;;5.05;;
12202;SDS011;6164;42.178;24.622;2023-05-10T13:04:48;7.78;;;5.07;;
12202;SDS011;6164;42.178;24.622;2023-05-10T13:07:15;6.00;;;5.40;;
12202;SDS011;6164;42.178;24.622;2023-05-10T13:09:42;5.45;;;4.95;;
12202;SDS011;6164;42.178;24.622;2023-05-10T13:12:09;5.65;;;5.13;;
12202;SDS011;6164;42.178;24.622;2023-05-10T13:14:36;9.10;;;5.20;;
12202;SDS011;6164;42.178;24.622;2023-05-10T13:17:04;6.00;;;5.38;;
12202;SDS011;6164;42.178;24.622;2023-05-10T13:19:31;4.97;;;4.53;;
12202;SDS011;6164;42.178;24.622;2023-05-10T13:21:57;5.22;;;4.75;;
12202;SDS011;6164;42.178;24.622;2023-05-10T13:24:24;6.63;;;5.05;;
12202;SDS011;6164;42.178;24.622;2023-05-10T13:26:51;6.63;;;6.03;;
12202;SDS011;6164;42.178;24.622;2023-05-10T13:29:17;6.50;;;5.40;;
12202;SDS011;6164;42.178;24.622;2023-05-10T13:31:46;6.57;;;5.95;;
12202;SDS011;6164;42.178;24.622;2023-05-10T13:34:14;8.85;;;6.57;;
12202;SDS011;6164;42.178;24.622;2023-05-10T13:36:40;5.70;;;5.20;;
12202;SDS011;6164;42.178;24.622;2023-05-10T13:39:07;6.95;;;6.28;;
12202;SDS011;6164;42.178;24.622;2023-05-10T13:41:34;5.60;;;5.07;;
12202;SDS011;6164;42.178;24.622;2023-05-10T13:44:01;6.45;;;5.85;;
12202;SDS011;6164;42.178;24.622;2023-05-10T13:46:28;6.05;;;5.40;;
12202;SDS011;6164;42.178;24.622;2023-05-10T13:48:55;6.50;;;5.90;;
12202;SDS011;6164;42.178;24.622;2023-05-10T13:51:24;5.88;;;5.38;;
12202;SDS011;6164;42.178;24.622;2023-05-10T13:53:51;5.95;;;5.45;;
12202;SDS011;6164;42.178;24.622;2023-05-10T13:56:35;6.55;;;4.90;;
12202;SDS011;6164;42.178;24.622;2023-05-10T13:59:02;6.72;;;4.60;;
12202;SDS011;6164;42.178;24.622;2023-05-10T14:01:29;5.72;;;5.20;;
12202;SDS011;6164;42.178;24.622;2023-05-10T14:03:56;7.68;;;4.38;;
12202;SDS011;6164;42.178;24.622;2023-05-10T14:06:24;6.28;;;5.68;;
12202;SDS011;6164;42.178;24.622;2023-05-10T14:08:52;7.60;;;5.75;;
12202;SDS011;6164;42.178;24.622;2023-05-10T14:11:18;7.18;;;6.07;;
12202;SDS011;6164;42.178;24.622;2023-05-10T14:13:45;7.72;;;6.78;;
12202;SDS011;6164;42.178;24.622;2023-05-10T14:16:12;6.85;;;6.25;;
12202;SDS011;6164;42.178;24.622;2023-05-10T14:18:39;7.22;;;6.57;;
12202;SDS011;6164;42.178;24.622;2023-05-10T14:21:06;8.43;;;7.43;;
12202;SDS011;6164;42.178;24.622;2023-05-10T14:23:34;7.80;;;7.10;;
12202;SDS011;6164;42.178;24.622;2023-05-10T14:26:01;6.93;;;6.32;;
12202;SDS011;6164;42.178;24.622;2023-05-10T14:28:28;8.55;;;7.13;;
12202;SDS011;6164;42.178;24.622;2023-05-10T14:30:54;10.60;;;7.40;;
12202;SDS011;6164;42.178;24.622;2023-05-10T14:33:21;7.45;;;6.05;;
12202;SDS011;6164;42.178;24.622;2023-05-10T14:35:48;7.28;;;6.32;;
12202;SDS011;6164;42.178;24.622;2023-05-10T14:38:16;7.57;;;6.82;;
12202;SDS011;6164;42.178;24.622;2023-05-10T14:40:44;7.47;;;6.68;;
12202;SDS011;6164;42.178;24.622;2023-05-10T14:43:11;7.80;;;7.00;;
12202;SDS011;6164;42.178;24.622;2023-05-10T14:45:37;9.40;;;6.57;;
12202;SDS011;6164;42.178;24.622;2023-05-10T14:48:04;7.30;;;6.07;;
12202;SDS011;6164;42.178;24.622;2023-05-10T14:50:31;6.68;;;6.10;;
12202;SDS011;6164;42.178;24.622;2023-05-10T14:56:03;8.57;;;6.50;;
12202;SDS011;6164;42.178;24.622;2023-05-10T14:58:30;7.22;;;6.38;;
12202;SDS011;6164;42.178;24.622;2023-05-10T15:00:57;8.55;;;6.35;;
12202;SDS011;6164;42.178;24.622;2023-05-10T15:03:23;6.90;;;6.30;;